createdAt,value
2022-09-09T00:04:34.333Z,15.26
2022-09-09T00:18:47.398Z,15.01
2022-09-09T00:33:01.400Z,14.75
2022-09-09T00:47:09.721Z,14.51
2022-09-09T01:01:22.248Z,14.37
2022-09-09T01:15:35.099Z,14.23
2022-09-09T01:29:47.290Z,14.15
2022-09-09T01:58:12.009Z,13.91
2022-09-09T02:12:23.994Z,13.68
2022-09-09T02:26:36.936Z,13.63
2022-09-09T02:55:02.426Z,13.42
2022-09-09T03:09:15.812Z,13.45
2022-09-09T03:23:29.535Z,13.95
2022-09-09T03:37:42.547Z,14.09
2022-09-09T03:51:55.539Z,14.21
2022-09-09T04:06:09.415Z,14.56
2022-09-09T04:20:22.229Z,14.54
2022-09-09T04:34:34.641Z,14.32
2022-09-09T04:48:47.752Z,14.22
2022-09-09T05:03:01.450Z,14.21
2022-09-09T05:17:14.036Z,14.13
2022-09-09T05:31:27.904Z,14.16
2022-09-09T05:45:39.869Z,14.47
2022-09-09T05:59:50.848Z,14.67
2022-09-09T06:14:05.820Z,15.19
2022-09-09T06:28:22.518Z,16.49
2022-09-09T06:42:35.411Z,16.88
2022-09-09T06:47:25.489Z,17.05
2022-09-09T06:56:58.773Z,17.21
2022-09-09T07:06:33.554Z,17.22
2022-09-09T07:16:08.409Z,17.39
2022-09-09T07:25:43.316Z,17.59
2022-09-09T07:26:46.761Z,17.61
2022-09-09T07:27:49.263Z,17.63
2022-09-09T07:39:28.082Z,17.7
2022-09-09T07:53:42.362Z,17.98
2022-09-09T08:07:58.927Z,18.74
2022-09-09T08:09:00.343Z,18.80
2022-09-09T08:10:04.289Z,18.83
2022-09-09T08:11:06.663Z,18.87
2022-09-09T08:13:19.055Z,18.91
2022-09-09T08:14:15.727Z,18.95
2022-09-09T08:15:18.120Z,19.00
2022-09-09T08:16:20.613Z,19.05
2022-09-09T08:17:24.686Z,19.09
2022-09-09T08:18:27.057Z,19.11
2022-09-09T08:19:29.504Z,19.16
2022-09-09T08:20:33.588Z,19.22
2022-09-09T08:21:37.522Z,19.25
2022-09-09T08:22:41.478Z,19.28
2022-09-09T08:23:45.421Z,19.31
2022-09-09T08:24:47.867Z,19.33
2022-09-09T08:25:50.285Z,19.32
2022-09-09T08:26:55.415Z,19.33
2022-09-09T08:27:59.381Z,19.39
2022-09-09T08:29:01.712Z,19.43
2022-09-09T08:30:07.016Z,19.47
2022-09-09T08:31:09.206Z,19.52
2022-09-09T08:32:11.682Z,19.57
2022-09-09T08:33:14.071Z,19.60
2022-09-09T08:42:46.734Z,19.17
2022-09-09T08:44:51.636Z,19.13
2022-09-09T08:45:55.774Z,19.14
2022-09-09T08:46:59.135Z,19.13
2022-09-09T08:48:01.600Z,19.15
2022-09-09T08:50:08.000Z,19.17
2022-09-09T08:51:12.148Z,19.19
2022-09-09T08:52:15.970Z,19.18
2022-09-09T08:53:19.280Z,19.22
2022-09-09T08:55:24.210Z,19.24
2022-09-09T08:58:33.422Z,19.23
2022-09-09T08:59:37.258Z,19.26
2022-09-09T09:00:39.612Z,19.28
2022-09-09T09:01:42.181Z,19.27
2022-09-09T09:02:44.574Z,19.24
2022-09-09T09:03:47.215Z,19.20
2022-09-09T09:04:49.801Z,19.19
2022-09-09T09:05:54.762Z,19.20
2022-09-09T09:06:58.608Z,19.21
2022-09-09T09:08:00.988Z,19.19
2022-09-09T09:09:03.462Z,19.20
2022-09-09T09:10:15.153Z,19.23
2022-09-09T09:11:10.034Z,19.27
2022-09-09T09:12:14.098Z,19.32
2022-09-09T09:13:16.467Z,19.41
2022-09-09T09:14:21.604Z,19.49
2022-09-09T09:15:23.958Z,19.55
2022-09-09T09:16:27.969Z,19.64
2022-09-09T09:17:31.915Z,19.72
2022-09-09T09:19:03.983Z,19.79
2022-09-09T09:19:36.713Z,19.87
2022-09-09T09:20:39.251Z,19.95
2022-09-09T09:21:41.848Z,19.98
2022-09-09T09:22:44.355Z,19.99
2022-09-09T09:23:46.779Z,20.03
2022-09-09T09:24:49.284Z,20.09
2022-09-09T09:25:53.357Z,20.16
2022-09-09T09:26:55.844Z,20.21
2022-09-09T09:27:58.327Z,20.22
2022-09-09T09:29:00.867Z,20.20
2022-09-09T09:30:22.804Z,20.17
2022-09-09T09:31:05.875Z,20.20
2022-09-09T09:32:08.215Z,20.21
2022-09-09T09:33:10.738Z,20.25
2022-09-09T09:34:13.244Z,20.26
2022-09-09T09:35:15.689Z,20.28
2022-09-09T09:36:18.196Z,20.31
2022-09-09T09:37:20.702Z,20.28
2022-09-09T09:40:29.390Z,20.20
2022-09-09T09:41:32.019Z,20.25
2022-09-09T09:42:34.557Z,20.30
2022-09-09T09:43:37.413Z,20.31
2022-09-09T09:44:39.697Z,20.34
2022-09-09T09:45:46.703Z,20.37
2022-09-09T09:46:46.497Z,20.44
2022-09-09T09:47:48.809Z,20.51
2022-09-09T09:48:51.334Z,20.62
2022-09-09T09:49:53.785Z,20.72
2022-09-09T09:50:56.271Z,20.80
2022-09-09T09:51:58.752Z,20.88
2022-09-09T09:53:02.322Z,20.95
2022-09-09T09:54:04.736Z,21.00
2022-09-09T09:55:08.375Z,21.05
2022-09-09T09:56:10.689Z,21.12
2022-09-09T09:57:14.741Z,21.22
2022-09-09T09:58:18.903Z,21.25
2022-09-09T09:59:23.615Z,21.27
2022-09-09T10:00:29.156Z,21.23
2022-09-09T10:01:33.001Z,21.27
2022-09-09T10:02:36.914Z,21.26
2022-09-09T10:03:39.307Z,21.21
2022-09-09T10:04:44.478Z,21.17
2022-09-09T10:05:48.253Z,21.10
2022-09-09T10:06:52.261Z,21.09
2022-09-09T10:07:54.562Z,20.98
2022-09-09T10:08:57.081Z,20.96
2022-09-09T10:10:01.162Z,20.92
2022-09-09T10:11:03.535Z,20.91
2022-09-09T10:12:06.061Z,20.85
2022-09-09T10:13:08.580Z,20.82
2022-09-09T10:14:12.004Z,20.76
2022-09-09T10:17:22.566Z,20.83
2022-09-09T10:20:29.840Z,20.77
2022-09-09T10:21:33.302Z,20.75
2022-09-09T10:22:34.805Z,20.72
2022-09-09T10:23:37.327Z,20.71
2022-09-09T10:24:39.770Z,20.65
2022-09-09T10:26:45.677Z,20.69
2022-09-09T10:27:51.470Z,20.71
2022-09-09T10:28:53.756Z,20.75
2022-09-09T10:29:57.778Z,20.79
2022-09-09T10:31:00.225Z,20.85
2022-09-09T10:32:02.640Z,20.89
2022-09-09T10:34:14.585Z,20.98
2022-09-09T10:35:16.796Z,21.03
2022-09-09T10:36:21.088Z,21.10
2022-09-09T10:37:27.304Z,21.14
2022-09-09T10:38:29.500Z,21.20
2022-09-09T10:39:33.750Z,21.25
2022-09-09T10:40:37.655Z,21.27
2022-09-09T10:41:40.022Z,21.28
2022-09-09T10:42:44.153Z,21.31
2022-09-09T10:44:48.955Z,21.26
2022-09-09T10:45:54.143Z,21.28
2022-09-09T10:46:56.337Z,21.27
2022-09-09T10:47:58.788Z,21.28
2022-09-09T10:49:01.234Z,21.32
2022-09-09T10:50:03.750Z,21.35
2022-09-09T10:51:07.037Z,21.31
2022-09-09T10:52:10.442Z,21.28
2022-09-09T10:53:12.801Z,21.32
2022-09-09T10:56:23.215Z,21.31
2022-09-09T10:57:27.200Z,21.35
2022-09-09T10:58:29.634Z,21.37
2022-09-09T10:59:33.645Z,21.34
2022-09-09T11:00:35.988Z,21.31
2022-09-09T11:01:39.644Z,21.28
2022-09-09T11:03:47.487Z,21.24
2022-09-09T11:04:49.932Z,21.21
2022-09-09T11:05:52.428Z,21.18
2022-09-09T11:06:54.906Z,21.08
2022-09-09T11:07:57.364Z,21.01
2022-09-09T11:08:59.936Z,20.98
2022-09-09T11:10:04.077Z,20.99
2022-09-09T11:11:08.119Z,21.00
2022-09-09T11:12:12.090Z,21.03
2022-09-09T11:13:16.139Z,21.06
2022-09-09T11:14:18.414Z,21.08
2022-09-09T11:15:22.535Z,21.10
2022-09-09T11:16:26.630Z,21.16
2022-09-09T11:17:28.968Z,21.20
2022-09-09T11:18:33.090Z,21.26
2022-09-09T11:19:37.041Z,21.29
2022-09-09T11:20:40.467Z,21.36
2022-09-09T11:21:42.749Z,21.42
2022-09-09T11:22:46.938Z,21.48
2022-09-09T11:23:49.274Z,21.51
2022-09-09T11:24:51.747Z,21.49
2022-09-09T11:25:55.896Z,21.48
2022-09-09T11:26:59.808Z,21.49
2022-09-09T11:28:02.196Z,21.43
2022-09-09T11:29:05.186Z,21.38
2022-09-09T11:30:07.197Z,21.39
2022-09-09T11:31:09.747Z,21.45
2022-09-09T11:32:12.187Z,21.44
2022-09-09T11:33:14.620Z,21.43
2022-09-09T11:34:17.090Z,21.40
2022-09-09T11:35:21.174Z,21.43
2022-09-09T11:36:23.565Z,21.46
2022-09-09T11:37:27.681Z,21.44
2022-09-09T11:39:32.652Z,21.46
2022-09-09T11:40:35.090Z,21.45
2022-09-09T11:41:39.207Z,21.49
2022-09-09T11:42:41.505Z,21.46
2022-09-09T11:43:46.616Z,21.45
2022-09-09T11:44:48.910Z,21.46
2022-09-09T11:45:51.442Z,21.48
2022-09-09T11:46:53.969Z,21.46
2022-09-09T11:47:56.410Z,21.45
2022-09-09T11:48:58.842Z,21.43
2022-09-09T11:50:01.327Z,21.36
2022-09-09T11:51:03.919Z,21.34
2022-09-09T11:52:06.447Z,21.32
2022-09-09T11:53:09.063Z,21.28
2022-09-09T11:54:13.131Z,21.25
2022-09-09T11:55:17.208Z,21.20
2022-09-09T12:04:49.888Z,20.54
2022-09-09T12:05:53.779Z,20.46
2022-09-09T12:06:57.764Z,20.37
2022-09-09T12:08:00.055Z,20.27
2022-09-09T12:09:02.521Z,20.17
2022-09-09T12:10:05.203Z,20.10
2022-09-09T12:11:07.615Z,20.01
2022-09-09T12:12:11.681Z,19.93
2022-09-09T12:13:15.633Z,19.82
2022-09-09T12:14:17.989Z,19.78
2022-09-09T12:23:49.172Z,18.79
2022-09-09T12:24:51.628Z,18.66
2022-09-09T12:25:54.450Z,18.55
2022-09-09T12:26:56.932Z,18.42
2022-09-09T12:27:59.347Z,18.35
2022-09-09T12:29:01.818Z,18.27
2022-09-09T12:30:04.464Z,18.22
2022-09-09T12:31:06.821Z,18.14
2022-09-09T12:32:09.210Z,18.11
2022-09-09T12:33:11.635Z,18.02
2022-09-09T12:34:15.761Z,17.97
2022-09-09T12:35:18.042Z,17.91
2022-09-09T12:44:49.835Z,17.35
2022-09-09T12:45:52.360Z,17.34
2022-09-09T12:46:54.883Z,17.37
2022-09-09T12:47:57.361Z,17.41
2022-09-09T12:48:59.816Z,17.46
2022-09-09T12:50:02.277Z,17.51
2022-09-09T12:51:06.377Z,17.57
2022-09-09T12:52:08.722Z,17.65
2022-09-09T12:53:11.203Z,17.70
2022-09-09T12:54:13.715Z,17.74
2022-09-09T12:55:17.770Z,17.81
2022-09-09T12:56:21.692Z,17.83
2022-09-09T12:57:24.111Z,17.90
2022-09-09T12:58:26.598Z,17.94
2022-09-09T12:59:28.977Z,18.01
2022-09-09T13:00:31.567Z,18.04
2022-09-09T13:01:34.112Z,18.14
2022-09-09T13:02:36.610Z,18.23
2022-09-09T13:03:39.013Z,18.32
2022-09-09T13:04:43.030Z,18.47
2022-09-09T13:05:47.017Z,18.52
2022-09-09T13:06:42.832Z,18.64
2022-09-09T13:06:49.403Z,18.80
2022-09-09T13:07:51.856Z,18.95
2022-09-09T13:08:57.040Z,19.11
2022-09-09T13:09:59.445Z,19.16
2022-09-09T13:20:58.885Z,20.15
2022-09-09T13:35:11.124Z,19.72
2022-09-09T13:49:22.658Z,19.56
2022-09-09T14:03:38.812Z,19.88
2022-09-09T14:03:49.303Z,19.89
2022-09-09T14:04:51.800Z,19.90
2022-09-09T14:05:54.267Z,19.89
2022-09-09T14:06:56.839Z,19.87
2022-09-09T14:07:59.343Z,19.86
2022-09-09T14:09:03.412Z,19.82
2022-09-09T14:10:05.886Z,19.80
2022-09-09T14:11:08.194Z,19.81
2022-09-09T14:12:10.839Z,19.78
2022-09-09T14:13:14.194Z,19.74
2022-09-09T14:15:19.140Z,19.73
2022-09-09T14:16:21.659Z,19.70
2022-09-09T14:17:25.728Z,19.71
2022-09-09T14:18:29.082Z,19.72
2022-09-09T14:19:35.938Z,19.74
2022-09-09T14:20:39.857Z,19.75
2022-09-09T14:21:43.797Z,19.74
2022-09-09T14:22:46.143Z,19.73
2022-09-09T14:23:50.275Z,19.69
2022-09-09T14:24:52.603Z,19.68
2022-09-09T14:25:56.642Z,19.64
2022-09-09T14:27:00.620Z,19.60
2022-09-09T14:28:02.958Z,19.56
2022-09-09T14:30:09.354Z,19.54
2022-09-09T14:31:13.510Z,19.50
2022-09-09T14:32:15.751Z,19.47
2022-09-09T14:33:18.241Z,19.44
2022-09-09T14:34:22.315Z,19.41
2022-09-09T14:36:27.090Z,19.39
2022-09-09T14:37:29.584Z,19.37
2022-09-09T14:38:32.048Z,19.35
2022-09-09T14:39:36.161Z,19.32
2022-09-09T14:40:40.099Z,19.31
2022-09-09T14:42:46.526Z,19.33
2022-09-09T14:44:51.311Z,19.34
2022-09-09T14:45:55.378Z,19.35
2022-09-09T14:46:12.571Z,19.23
2022-09-09T15:00:27.233Z,19.82
2022-09-09T15:00:32.949Z,19.83
2022-09-09T15:01:38.014Z,19.80
2022-09-09T15:02:40.304Z,19.82
2022-09-09T15:03:44.478Z,19.80
2022-09-09T15:04:48.275Z,19.77
2022-09-09T15:06:54.737Z,19.78
2022-09-09T15:07:57.070Z,19.76
2022-09-09T15:08:59.604Z,19.78
2022-09-09T15:12:08.701Z,19.77
2022-09-09T15:13:10.973Z,19.75
2022-09-09T15:14:13.467Z,19.74
2022-09-09T15:15:15.903Z,19.75
2022-09-09T15:16:18.479Z,19.74
2022-09-09T15:18:23.477Z,19.70
2022-09-09T15:19:27.559Z,19.69
2022-09-09T15:20:29.931Z,19.73
2022-09-09T15:21:34.038Z,19.72
2022-09-09T15:22:36.489Z,19.75
2022-09-09T15:23:40.679Z,19.76
2022-09-09T15:24:44.606Z,19.74
2022-09-09T15:25:48.612Z,19.76
2022-09-09T15:27:56.417Z,19.80
2022-09-09T15:28:54.452Z,19.74
2022-09-09T15:43:06.083Z,19.81
2022-09-09T15:43:42.983Z,19.80
2022-09-09T15:44:47.021Z,19.79
2022-09-09T15:45:50.363Z,19.76
2022-09-09T15:46:52.838Z,19.75
2022-09-09T15:47:55.281Z,19.76
2022-09-09T15:50:01.737Z,19.74
2022-09-09T15:51:07.836Z,19.72
2022-09-09T15:52:06.630Z,19.66
2022-09-09T15:53:09.040Z,19.65
2022-09-09T15:54:11.617Z,19.63
2022-09-09T15:55:15.744Z,19.62
2022-09-09T15:56:19.651Z,19.61
2022-09-09T15:57:20.702Z,19.5
2022-09-09T16:01:33.397Z,19.50
2022-09-09T16:02:35.913Z,19.48
2022-09-09T16:03:44.816Z,19.47
2022-09-09T16:04:42.861Z,19.46
2022-09-09T16:05:45.250Z,19.44
2022-09-09T16:06:47.749Z,19.40
2022-09-09T16:07:51.403Z,19.39
2022-09-09T16:10:58.824Z,19.38
2022-09-09T16:11:31.116Z,19.18
2022-09-09T16:25:44.118Z,19
2022-09-09T16:39:55.875Z,18.77
2022-09-09T16:54:08.896Z,18.53
2022-09-09T17:05:42.551Z,18.36
2022-09-09T17:08:20.378Z,17.95
2022-09-09T17:15:16.358Z,17.90
2022-09-09T17:22:32.878Z,17.41
2022-09-09T17:34:25.524Z,17.05
2022-09-09T17:36:45.076Z,16.87
2022-09-09T17:43:59.122Z,16.72
2022-09-09T17:50:56.971Z,16.32
2022-09-09T18:03:06.695Z,16.15
2022-09-09T18:05:09.163Z,15.89
2022-09-09T18:19:21.583Z,15.61
2022-09-09T18:33:34.021Z,15.39
2022-09-09T18:47:46.438Z,15.14
2022-09-09T19:01:59.191Z,14.95
2022-09-09T19:16:12.337Z,14.71
2022-09-09T19:30:24.909Z,14.52
2022-09-09T19:44:37.522Z,14.38
2022-09-09T19:58:50.527Z,14.27
2022-09-09T20:13:03.123Z,14.09
2022-09-09T20:27:15.443Z,13.93
2022-09-09T20:41:27.533Z,13.76
2022-09-09T21:09:50.934Z,13.47
2022-09-09T21:24:04.068Z,13.29
2022-09-09T21:38:19.302Z,13.13
2022-09-09T21:52:26.566Z,13.23
2022-09-09T22:06:39.823Z,13.22
2022-09-09T22:20:52.384Z,13.11
2022-09-09T22:35:04.846Z,12.96
2022-09-09T22:49:17.350Z,12.97
2022-09-09T23:03:30.221Z,12.92
2022-09-09T23:17:43.023Z,13.11
2022-09-09T23:31:56.060Z,13.23
2022-09-09T23:46:08.046Z,12.97
